createdAt,value
2018-04-10T00:01:38.900Z,25.40
2018-04-10T00:04:06.039Z,23.62
2018-04-10T00:06:32.893Z,22.62
2018-04-10T00:08:59.927Z,24.70
2018-04-10T00:11:27.086Z,24.48
2018-04-10T00:13:53.944Z,22.75
2018-04-10T00:16:20.761Z,21.33
2018-04-10T00:18:47.815Z,23.38
2018-04-10T00:21:14.672Z,26.73
2018-04-10T00:23:41.490Z,25.83
2018-04-10T00:26:08.275Z,25.75
2018-04-10T00:28:35.152Z,26.60
2018-04-10T00:31:01.969Z,30.70
2018-04-10T00:33:28.802Z,25.57
2018-04-10T00:35:55.919Z,26.67
2018-04-10T00:38:22.968Z,21.50
2018-04-10T00:40:49.789Z,22.85
2018-04-10T00:43:16.863Z,22.37
2018-04-10T00:45:43.908Z,23.95
2018-04-10T00:48:10.728Z,28.55
2018-04-10T00:50:37.905Z,24.15
2018-04-10T00:53:21.428Z,23.83
2018-04-10T00:55:48.247Z,21.95
2018-04-10T00:58:15.341Z,20.83
2018-04-10T01:00:42.167Z,22.57
2018-04-10T01:03:09.009Z,24.30
2018-04-10T01:05:36.183Z,21.33
2018-04-10T01:08:03.004Z,22.10
2018-04-10T01:10:29.824Z,22.48
2018-04-10T01:12:56.899Z,24.20
2018-04-10T01:15:23.692Z,21.00
2018-04-10T01:17:50.540Z,22.37
2018-04-10T01:20:17.372Z,23.43
2018-04-10T01:22:44.184Z,21.20
2018-04-10T01:25:11.033Z,23.02
2018-04-10T01:27:37.886Z,24.70
2018-04-10T01:30:04.905Z,22.58
2018-04-10T01:32:31.756Z,23.08
2018-04-10T01:34:58.995Z,21.80
2018-04-10T01:37:25.787Z,20.80
2018-04-10T01:39:52.637Z,26.23
2018-04-10T01:42:19.741Z,21.90
2018-04-10T01:44:46.559Z,22.45
2018-04-10T01:47:13.732Z,23.73
2018-04-10T01:49:40.525Z,26.33
2018-04-10T01:52:07.357Z,21.33
2018-04-10T01:54:34.171Z,23.50
2018-04-10T01:57:00.996Z,29.05
2018-04-10T01:59:28.045Z,23.17
2018-04-10T02:01:54.899Z,30.48
2018-04-10T02:04:21.708Z,27.80
2018-04-10T02:06:48.534Z,23.38
2018-04-10T02:09:15.625Z,27.90
2018-04-10T02:14:33.032Z,23.57
2018-04-10T02:17:12.203Z,24.55
2018-04-10T02:19:45.397Z,22.03
2018-04-10T02:22:12.216Z,25.58
2018-04-10T02:24:39.057Z,25.92
2018-04-10T02:27:06.233Z,24.92
2018-04-10T02:29:33.024Z,25.27
2018-04-10T02:31:59.857Z,26.05
2018-04-10T02:34:26.667Z,22.10
2018-04-10T02:36:53.513Z,23.70
2018-04-10T02:39:20.658Z,21.93
2018-04-10T02:41:47.800Z,25.70
2018-04-10T02:44:14.953Z,21.92
2018-04-10T02:46:41.764Z,21.35
2018-04-10T02:49:08.628Z,24.30
2018-04-10T02:51:35.463Z,24.03
2018-04-10T02:54:02.260Z,28.27
2018-04-10T02:56:29.477Z,24.33
2018-04-10T02:58:56.309Z,21.52
2018-04-10T03:01:23.152Z,24.48
2018-04-10T03:03:50.016Z,22.27
2018-04-10T03:06:16.823Z,24.87
2018-04-10T03:08:43.631Z,23.67
2018-04-10T03:11:10.749Z,24.65
2018-04-10T03:13:37.783Z,24.15
2018-04-10T03:16:04.585Z,25.35
2018-04-10T03:18:31.436Z,27.02
2018-04-10T03:20:58.247Z,25.62
2018-04-10T03:23:25.368Z,24.85
2018-04-10T03:25:52.198Z,26.30
2018-04-10T03:28:19.360Z,24.65
2018-04-10T03:30:46.173Z,23.85
2018-04-10T03:33:13.008Z,30.50
2018-04-10T03:35:39.833Z,25.97
2018-04-10T03:38:06.659Z,24.33
2018-04-10T03:40:33.775Z,26.45
2018-04-10T03:43:00.598Z,23.70
2018-04-10T03:45:27.473Z,27.52
2018-04-10T03:47:54.394Z,27.23
2018-04-10T03:50:21.216Z,24.73
2018-04-10T03:52:48.064Z,27.77
2018-04-10T03:55:14.913Z,24.65
2018-04-10T03:57:41.717Z,23.73
2018-04-10T04:00:08.540Z,25.70
2018-04-10T04:02:35.394Z,27.50
2018-04-10T04:05:02.208Z,24.07
2018-04-10T04:07:28.996Z,25.62
2018-04-10T04:09:55.856Z,27.05
2018-04-10T04:12:22.944Z,28.65
2018-04-10T04:14:49.996Z,28.25
2018-04-10T04:17:22.777Z,25.67
2018-04-10T04:19:55.601Z,25.75
2018-04-10T04:22:28.384Z,28.90
2018-04-10T04:24:55.208Z,28.55
2018-04-10T04:27:22.336Z,25.05
2018-04-10T04:29:49.194Z,24.77
2018-04-10T04:32:15.985Z,25.88
2018-04-10T04:34:42.803Z,25.83
2018-04-10T04:37:09.665Z,27.90
2018-04-10T04:39:36.455Z,26.23
2018-04-10T04:42:03.256Z,23.83
2018-04-10T04:44:30.085Z,28.10
2018-04-10T04:46:56.903Z,26.62
2018-04-10T04:49:23.920Z,24.05
2018-04-10T04:51:51.078Z,27.00
2018-04-10T04:54:17.871Z,27.37
2018-04-10T04:56:44.699Z,29.45
2018-04-10T04:59:11.553Z,25.65
2018-04-10T05:01:38.381Z,29.02
2018-04-10T05:04:05.167Z,27.25
2018-04-10T05:06:32.013Z,25.97
2018-04-10T05:08:59.082Z,25.75
2018-04-10T05:11:25.929Z,26.05
2018-04-10T05:13:52.712Z,30.23
2018-04-10T05:16:19.512Z,25.62
2018-04-10T05:18:46.330Z,26.92
2018-04-10T05:21:13.141Z,28.87
2018-04-10T05:23:39.984Z,26.45
2018-04-10T05:26:07.189Z,27.85
2018-04-10T05:28:34.006Z,30.33
2018-04-10T05:31:00.843Z,27.98
2018-04-10T05:33:27.712Z,28.58
2018-04-10T05:35:54.578Z,32.38
2018-04-10T05:38:21.423Z,31.10
2018-04-10T05:40:48.245Z,27.55
2018-04-10T05:43:15.044Z,27.80
2018-04-10T05:45:41.837Z,27.35
2018-04-10T05:48:08.694Z,32.13
2018-04-10T05:50:35.479Z,29.30
2018-04-10T05:53:02.311Z,30.70
2018-04-10T05:55:29.104Z,29.45
2018-04-10T05:57:55.904Z,28.00
2018-04-10T06:00:22.720Z,27.67
2018-04-10T06:02:49.512Z,37.53
2018-04-10T06:05:16.577Z,32.70
2018-04-10T06:07:43.729Z,29.15
2018-04-10T06:10:10.587Z,29.00
2018-04-10T06:12:37.388Z,31.12
2018-04-10T06:15:04.188Z,31.52
2018-04-10T06:17:31.017Z,30.48
2018-04-10T06:19:57.849Z,31.45
2018-04-10T06:22:24.632Z,31.30
2018-04-10T06:24:51.472Z,30.10
2018-04-10T06:27:18.276Z,34.97
2018-04-10T06:29:45.421Z,28.67
2018-04-10T06:32:12.463Z,34.33
2018-04-10T06:34:39.264Z,33.67
2018-04-10T06:37:06.109Z,29.85
2018-04-10T06:39:32.938Z,38.10
2018-04-10T06:41:59.750Z,30.42
2018-04-10T06:44:26.601Z,34.78
2018-04-10T06:46:53.734Z,31.58
2018-04-10T06:49:20.906Z,38.17
2018-04-10T06:51:48.041Z,30.33
2018-04-10T06:54:14.858Z,27.58
2018-04-10T06:56:41.693Z,27.27
2018-04-10T06:59:08.513Z,26.02
2018-04-10T07:01:35.363Z,26.80
2018-04-10T07:04:02.116Z,25.52
2018-04-10T07:06:28.961Z,32.97
2018-04-10T07:08:55.813Z,25.92
2018-04-10T07:11:22.596Z,26.83
2018-04-10T07:13:49.421Z,29.55
2018-04-10T07:16:16.477Z,28.02
2018-04-10T07:18:43.271Z,27.40
2018-04-10T07:21:10.106Z,24.12
2018-04-10T07:23:36.929Z,24.98
2018-04-10T07:26:03.831Z,25.55
2018-04-10T07:28:30.704Z,23.50
2018-04-10T07:30:57.525Z,24.05
2018-04-10T07:33:24.373Z,23.53
2018-04-10T07:35:51.317Z,26.02
2018-04-10T07:38:18.249Z,26.45
2018-04-10T07:40:45.411Z,28.62
2018-04-10T07:43:12.295Z,25.67
2018-04-10T07:45:39.095Z,25.20
2018-04-10T07:48:05.913Z,29.53
2018-04-10T07:50:32.979Z,28.95
2018-04-10T07:53:00.028Z,26.55
2018-04-10T07:55:27.187Z,32.22
2018-04-10T07:57:54.337Z,24.35
2018-04-10T08:00:21.153Z,26.83
2018-04-10T08:02:47.980Z,26.50
2018-04-10T08:05:14.809Z,23.45
2018-04-10T08:07:41.907Z,27.70
2018-04-10T08:10:08.753Z,27.60
2018-04-10T08:12:35.581Z,20.33
2018-04-10T08:15:02.408Z,22.87
2018-04-10T08:17:29.196Z,24.63
2018-04-10T08:19:56.021Z,21.70
2018-04-10T08:22:23.093Z,21.60
2018-04-10T08:24:50.228Z,23.77
2018-04-10T08:27:17.043Z,21.98
2018-04-10T08:29:44.113Z,21.77
2018-04-10T08:32:11.266Z,22.48
2018-04-10T08:34:38.068Z,20.02
2018-04-10T08:37:04.927Z,20.80
2018-04-10T08:39:31.766Z,21.30
2018-04-10T08:41:58.840Z,24.70
2018-04-10T08:44:25.993Z,26.98
2018-04-10T08:46:53.141Z,21.37
2018-04-10T08:49:20.205Z,22.37
2018-04-10T08:51:47.033Z,22.55
2018-04-10T08:54:14.185Z,18.60
2018-04-10T08:56:40.999Z,30.58
2018-04-10T08:59:08.077Z,27.03
2018-04-10T09:01:35.228Z,23.55
2018-04-10T09:04:02.080Z,20.60
2018-04-10T09:06:28.868Z,21.77
2018-04-10T09:08:55.689Z,20.77
2018-04-10T09:11:22.494Z,20.43
2018-04-10T09:13:49.313Z,22.75
2018-04-10T09:16:16.156Z,19.23
2018-04-10T09:18:42.945Z,19.13
2018-04-10T09:21:09.737Z,18.00
2018-04-10T09:23:36.604Z,17.87
2018-04-10T09:26:03.422Z,21.00
2018-04-10T09:28:30.297Z,25.27
2018-04-10T09:30:57.121Z,20.37
2018-04-10T09:33:24.393Z,22.58
2018-04-10T09:35:51.548Z,28.65
2018-04-10T09:38:18.365Z,24.73
2018-04-10T09:40:45.545Z,20.73
2018-04-10T09:43:12.580Z,25.47
2018-04-10T09:45:39.378Z,34.90
2018-04-10T09:48:06.192Z,28.70
2018-04-10T09:50:33.014Z,37.50
2018-04-10T09:52:59.853Z,31.85
2018-04-10T09:55:26.677Z,41.50
2018-04-10T09:57:53.748Z,41.53
2018-04-10T10:00:20.896Z,37.40
2018-04-10T10:02:47.721Z,39.30
2018-04-10T10:05:14.649Z,34.13
2018-04-10T10:07:41.439Z,36.03
2018-04-10T10:10:08.236Z,34.93
2018-04-10T10:12:35.068Z,32.42
2018-04-10T10:15:02.164Z,36.95
2018-04-10T10:17:29.006Z,32.67
2018-04-10T10:19:55.859Z,32.20
2018-04-10T10:22:22.664Z,30.98
2018-04-10T10:24:49.470Z,27.13
2018-04-10T10:27:16.265Z,33.10
2018-04-10T10:29:43.135Z,29.30
2018-04-10T10:32:09.961Z,27.60
2018-04-10T10:34:36.793Z,27.13
2018-04-10T10:37:03.849Z,24.20
2018-04-10T10:39:30.681Z,26.23
2018-04-10T10:41:57.526Z,28.60
2018-04-10T10:44:24.340Z,26.67
2018-04-10T10:46:51.431Z,27.10
2018-04-10T10:49:18.471Z,34.42
2018-04-10T10:51:45.266Z,31.30
2018-04-10T10:54:12.088Z,28.23
2018-04-10T10:56:38.880Z,34.08
2018-04-10T10:59:05.668Z,29.58
2018-04-10T11:01:32.508Z,27.75
2018-04-10T11:03:59.341Z,27.50
2018-04-10T11:06:26.498Z,34.65
2018-04-10T11:08:53.535Z,27.42
2018-04-10T11:11:20.327Z,25.50
2018-04-10T11:13:47.215Z,26.65
2018-04-10T11:16:14.007Z,23.40
2018-04-10T11:18:41.109Z,23.15
2018-04-10T11:21:08.152Z,27.65
2018-04-10T11:23:34.973Z,26.30
2018-04-10T11:26:01.780Z,22.50
2018-04-10T11:28:29.108Z,28.30
2018-04-10T11:30:55.958Z,21.90
2018-04-10T11:33:23.096Z,26.87
2018-04-10T11:35:50.136Z,20.37
2018-04-10T11:38:17.072Z,25.23
2018-04-10T11:40:44.139Z,23.20
2018-04-10T11:43:11.013Z,28.38
2018-04-10T11:45:38.373Z,26.95
2018-04-10T11:48:05.172Z,24.73
2018-04-10T11:50:33.835Z,26.47
2018-04-10T11:53:00.707Z,24.37
2018-04-10T11:55:30.519Z,22.58
2018-04-10T11:57:57.822Z,24.45
2018-04-10T12:00:24.603Z,26.55
2018-04-10T12:02:51.523Z,23.20
2018-04-10T12:05:18.388Z,23.58
2018-04-10T12:07:45.259Z,22.65
2018-04-10T12:12:45.879Z,20.67
2018-04-10T12:15:12.847Z,19.50
2018-04-10T12:17:41.600Z,20.42
2018-04-10T12:20:08.789Z,20.52
2018-04-10T12:22:35.572Z,19.97
2018-04-10T12:25:03.006Z,21.15
2018-04-10T12:27:29.871Z,19.87
2018-04-10T12:29:56.808Z,20.55
2018-04-10T12:32:26.602Z,18.95
2018-04-10T12:34:53.480Z,18.95
2018-04-10T12:37:20.929Z,17.00
2018-04-10T12:39:48.255Z,18.67
2018-04-10T12:42:15.120Z,19.02
2018-04-10T12:44:41.957Z,18.85
2018-04-10T12:47:08.948Z,16.08
2018-04-10T12:49:37.667Z,17.33
2018-04-10T12:52:09.558Z,26.83
2018-04-10T12:54:36.403Z,24.17
2018-04-10T12:57:03.204Z,18.90
2018-04-10T12:59:30.059Z,17.48
2018-04-10T13:01:57.198Z,15.53
2018-04-10T13:04:24.318Z,18.93
2018-04-10T13:06:53.830Z,17.08
2018-04-10T13:09:20.713Z,15.73
2018-04-10T13:11:47.525Z,18.10
2018-04-10T13:14:14.704Z,18.27
2018-04-10T13:16:41.594Z,19.20
2018-04-10T13:19:08.478Z,18.65
2018-04-10T13:21:35.273Z,22.92
2018-04-10T13:24:02.161Z,17.05
2018-04-10T13:26:29.207Z,16.80
2018-04-10T13:28:56.086Z,18.92
2018-04-10T13:31:23.241Z,20.30
2018-04-10T13:33:50.053Z,23.07
2018-04-10T13:36:17.713Z,23.12
2018-04-10T13:38:44.529Z,18.10
2018-04-10T13:41:12.377Z,18.50
2018-04-10T13:43:39.238Z,19.83
2018-04-10T13:46:06.025Z,17.83
2018-04-10T13:48:32.885Z,19.05
2018-04-10T13:50:59.672Z,16.12
2018-04-10T13:53:26.461Z,18.80
2018-04-10T13:55:53.585Z,19.67
2018-04-10T13:58:20.628Z,17.35
2018-04-10T14:00:47.453Z,19.07
2018-04-10T14:03:14.521Z,17.40
2018-04-10T14:05:41.344Z,18.02
2018-04-10T14:08:08.521Z,17.80
2018-04-10T14:10:35.315Z,22.13
2018-04-10T14:13:02.163Z,21.37
2018-04-10T14:15:28.990Z,20.73
2018-04-10T14:17:55.808Z,22.33
2018-04-10T14:20:22.941Z,19.05
2018-04-10T14:22:50.093Z,21.77
2018-04-10T14:25:17.241Z,20.60
2018-04-10T14:27:44.064Z,23.58
2018-04-10T14:30:10.884Z,20.15
2018-04-10T14:32:37.687Z,19.40
2018-04-10T14:35:04.821Z,38.60
2018-04-10T14:37:31.900Z,21.80
2018-04-10T14:39:58.732Z,18.62
2018-04-10T14:42:25.528Z,19.43
2018-04-10T14:44:52.347Z,22.90
2018-04-10T14:47:19.144Z,21.50
2018-04-10T14:49:46.001Z,18.80
2018-04-10T14:52:12.853Z,19.40
2018-04-10T14:54:39.676Z,19.12
2018-04-10T14:57:06.516Z,20.27
2018-04-10T14:59:33.336Z,25.43
2018-04-10T15:02:00.517Z,22.77
2018-04-10T15:04:27.337Z,21.25
2018-04-10T15:06:54.161Z,23.48
2018-04-10T15:09:20.963Z,20.50
2018-04-10T15:11:47.756Z,21.12
2018-04-10T15:14:14.607Z,21.95
2018-04-10T15:16:41.662Z,19.42
2018-04-10T15:19:08.467Z,22.70
2018-04-10T15:21:35.497Z,20.93
2018-04-10T15:24:02.322Z,21.80
2018-04-10T15:26:29.183Z,20.42
2018-04-10T15:28:55.975Z,28.60
2018-04-10T15:31:22.772Z,23.80
2018-04-10T15:33:49.605Z,22.67
2018-04-10T15:36:16.717Z,22.67
2018-04-10T15:38:43.560Z,22.43
2018-04-10T15:41:10.364Z,22.65
2018-04-10T15:43:37.181Z,19.70
2018-04-10T15:46:04.023Z,22.33
2018-04-10T15:48:30.849Z,21.37
2018-04-10T15:50:57.975Z,31.30
2018-04-10T15:53:25.133Z,31.00
2018-04-10T15:55:51.924Z,26.23
2018-04-10T15:58:18.735Z,22.80
2018-04-10T16:00:45.760Z,23.83
2018-04-10T16:03:12.584Z,24.05
2018-04-10T16:05:39.401Z,26.08
2018-04-10T16:08:06.492Z,24.05
2018-04-10T16:10:33.651Z,27.75
2018-04-10T16:13:00.465Z,23.10
2018-04-10T16:15:27.289Z,21.43
2018-04-10T16:17:54.105Z,24.30
2018-04-10T16:20:21.158Z,25.88
2018-04-10T16:22:47.975Z,22.55
2018-04-10T16:25:14.797Z,23.38
2018-04-10T16:27:41.961Z,25.50
2018-04-10T16:30:08.751Z,39.28
2018-04-10T16:32:35.854Z,28.77
2018-04-10T16:35:02.689Z,26.53
2018-04-10T16:37:29.505Z,24.02
2018-04-10T16:39:56.392Z,28.95
2018-04-10T16:42:23.424Z,23.42
2018-04-10T16:44:50.517Z,22.05
2018-04-10T16:47:17.336Z,27.13
2018-04-10T16:49:44.166Z,27.02
2018-04-10T16:52:11.012Z,25.48
2018-04-10T16:54:38.052Z,23.95
2018-04-10T16:57:04.852Z,25.15
2018-04-10T16:59:31.660Z,29.37
2018-04-10T17:01:58.516Z,22.10
2018-04-10T17:04:25.637Z,25.55
2018-04-10T17:06:52.464Z,24.27
2018-04-10T17:09:19.358Z,26.90
2018-04-10T17:11:46.245Z,25.27
2018-04-10T17:14:13.309Z,24.40
2018-04-10T17:16:40.477Z,26.20
2018-04-10T17:19:07.285Z,23.87
2018-04-10T17:21:34.114Z,25.23
2018-04-10T17:24:01.201Z,23.25
2018-04-10T17:26:28.028Z,28.70
2018-04-10T17:28:55.194Z,23.08
2018-04-10T17:31:22.235Z,24.15
2018-04-10T17:33:49.284Z,21.73
2018-04-10T17:36:16.440Z,27.15
2018-04-10T17:38:43.260Z,26.70
2018-04-10T17:41:10.429Z,27.35
2018-04-10T17:43:37.474Z,21.87
2018-04-10T17:46:04.633Z,24.65
2018-04-10T17:48:31.561Z,24.95
2018-04-10T17:50:58.621Z,28.55
2018-04-10T17:53:25.470Z,26.37
2018-04-10T17:55:52.268Z,24.80
2018-04-10T17:58:19.064Z,26.17
2018-04-10T18:00:45.905Z,26.83
2018-04-10T18:03:12.722Z,25.88
2018-04-10T18:05:39.896Z,26.35
2018-04-10T18:08:06.709Z,27.13
2018-04-10T18:10:33.503Z,28.55
2018-04-10T18:13:00.345Z,28.67
2018-04-10T18:15:27.466Z,23.87
2018-04-10T18:17:54.318Z,25.55
2018-04-10T18:20:21.352Z,28.38
2018-04-10T18:22:48.500Z,25.88
2018-04-10T18:25:15.307Z,26.42
2018-04-10T18:27:42.142Z,25.35
2018-04-10T18:30:08.963Z,28.58
2018-04-10T18:32:35.752Z,27.33
2018-04-10T18:35:02.779Z,24.33
2018-04-10T18:37:29.615Z,28.42
2018-04-10T18:39:56.395Z,24.75
2018-04-10T18:42:23.249Z,32.60
2018-04-10T18:44:50.064Z,26.23
2018-04-10T18:47:16.877Z,28.67
2018-04-10T18:49:43.695Z,27.80
2018-04-10T18:52:10.724Z,25.85
2018-04-10T18:54:37.580Z,24.92
2018-04-10T18:57:04.379Z,23.25
2018-04-10T18:59:31.172Z,25.45
2018-04-10T19:01:57.972Z,29.77
2018-04-10T19:04:24.795Z,31.63
2018-04-10T19:06:51.642Z,25.45
2018-04-10T19:09:18.728Z,26.45
2018-04-10T19:11:45.883Z,24.55
2018-04-10T19:14:12.717Z,24.67
2018-04-10T19:16:39.773Z,22.47
2018-04-10T19:19:06.614Z,26.62
2018-04-10T19:21:33.443Z,26.57
2018-04-10T19:24:00.245Z,23.23
2018-04-10T19:26:27.075Z,26.42
2018-04-10T19:28:53.876Z,24.30
2018-04-10T19:31:21.032Z,23.48
2018-04-10T19:33:47.857Z,24.83
2018-04-10T19:36:14.932Z,24.02
2018-04-10T19:38:41.736Z,23.65
2018-04-10T19:41:08.539Z,24.58
2018-04-10T19:43:35.359Z,25.37
2018-04-10T19:46:02.505Z,23.35
2018-04-10T19:48:29.321Z,24.23
2018-04-10T19:50:56.157Z,21.37
2018-04-10T19:53:23.241Z,23.15
2018-04-10T19:55:50.298Z,20.83
2018-04-10T19:58:17.108Z,20.58
2018-04-10T20:00:43.929Z,21.48
2018-04-10T20:03:10.743Z,25.50
2018-04-10T20:05:37.869Z,25.13
2018-04-10T20:08:05.013Z,22.95
2018-04-10T20:10:31.861Z,19.95
2018-04-10T20:12:58.680Z,23.27
2018-04-10T20:15:25.750Z,23.90
2018-04-10T20:17:52.573Z,25.60
2018-04-10T20:20:19.421Z,22.20
2018-04-10T20:22:46.207Z,24.40
2018-04-10T20:25:13.038Z,30.35
2018-04-10T20:27:40.181Z,20.67
2018-04-10T20:30:07.026Z,18.92
2018-04-10T20:32:34.160Z,22.00
2018-04-10T20:35:01.318Z,22.62
2018-04-10T20:37:28.141Z,21.15
2018-04-10T20:39:54.985Z,21.53
2018-04-10T20:42:21.972Z,21.55
2018-04-10T20:44:48.905Z,19.00
2018-04-10T20:47:15.937Z,21.65
2018-04-10T20:49:42.785Z,19.97
2018-04-10T20:52:09.627Z,19.42
2018-04-10T20:54:36.411Z,17.85
2018-04-10T20:57:03.517Z,18.12
2018-04-10T20:59:30.315Z,16.73
2018-04-10T21:01:57.156Z,20.98
2018-04-10T21:04:23.996Z,19.12
2018-04-10T21:06:50.804Z,18.80
2018-04-10T21:09:17.648Z,17.50
2018-04-10T21:11:44.466Z,21.53
2018-04-10T21:14:11.312Z,16.75
2018-04-10T21:16:38.103Z,19.30
2018-04-10T21:19:04.925Z,17.67
2018-04-10T21:21:32.053Z,15.32
2018-04-10T21:23:58.876Z,19.02
2018-04-10T21:26:25.671Z,17.45
2018-04-10T21:28:52.705Z,17.50
2018-04-10T21:31:19.527Z,15.75
2018-04-10T21:33:46.368Z,20.05
2018-04-10T21:36:13.531Z,19.85
2018-04-10T21:38:40.779Z,16.62
2018-04-10T21:41:07.642Z,22.62
2018-04-10T21:43:34.489Z,16.87
2018-04-10T21:46:01.345Z,23.25
2018-04-10T21:48:28.130Z,17.08
2018-04-10T21:50:54.941Z,18.73
2018-04-10T21:53:21.752Z,19.57
2018-04-10T21:55:48.580Z,19.62
2018-04-10T21:58:15.383Z,13.50
2018-04-10T22:00:42.217Z,17.25
2018-04-10T22:03:09.211Z,16.20
2018-04-10T22:05:36.278Z,17.10
2018-04-10T22:08:03.072Z,15.27
2018-04-10T22:10:29.895Z,14.10
2018-04-10T22:12:56.714Z,15.18
2018-04-10T22:15:23.525Z,17.67
2018-04-10T22:17:50.341Z,17.07
2018-04-10T22:20:17.100Z,14.07
2018-04-10T22:22:44.151Z,14.40
2018-04-10T22:25:11.343Z,14.68
2018-04-10T22:27:38.106Z,15.77
2018-04-10T22:30:05.196Z,19.77
2018-04-10T22:32:31.958Z,15.83
2018-04-10T22:34:58.793Z,17.60
2018-04-10T22:37:25.896Z,15.27
2018-04-10T22:39:52.700Z,15.73
2018-04-10T22:42:19.504Z,12.52
2018-04-10T22:44:46.301Z,15.90
2018-04-10T22:47:13.373Z,16.12
2018-04-10T22:49:40.529Z,14.57
2018-04-10T22:52:07.343Z,15.30
2018-04-10T22:54:36.051Z,17.80
2018-04-10T22:57:03.100Z,18.60
2018-04-10T22:59:29.942Z,17.70
2018-04-10T23:01:56.751Z,13.30
2018-04-10T23:04:23.821Z,14.85
2018-04-10T23:06:50.897Z,15.85
2018-04-10T23:09:17.717Z,17.77
2018-04-10T23:11:44.578Z,19.37
2018-04-10T23:14:11.359Z,16.25
2018-04-10T23:16:38.391Z,15.93
2018-04-10T23:19:05.213Z,17.83
2018-04-10T23:21:32.029Z,14.27
2018-04-10T23:23:59.131Z,13.43
2018-04-10T23:26:25.913Z,17.83
2018-04-10T23:28:52.735Z,16.87
2018-04-10T23:31:19.574Z,15.13
2018-04-10T23:33:46.397Z,17.50
2018-04-10T23:36:13.226Z,14.57
2018-04-10T23:38:40.020Z,15.60
2018-04-10T23:41:07.037Z,15.18
2018-04-10T23:43:33.873Z,16.95
2018-04-10T23:46:00.682Z,11.82
2018-04-10T23:48:27.486Z,17.30
2018-04-10T23:50:54.309Z,14.02
2018-04-10T23:53:21.355Z,15.23
2018-04-10T23:55:48.161Z,13.90
2018-04-10T23:58:14.956Z,17.83
